Terminal Aerodrome Forecast
Issued by NWS

Home | Current Version | Previous Version | Text Only | Print | Product List | Glossary On
Versions: 1 2 3 4 5 6 7 8 9 10 11 12
000
FTUS46 KLOX 182300 RRA
TAFWJF
TAF
KWJF 182340Z 1900/1924 24016G25KT P6SM SCT250
     FM190200 23013KT P6SM BKN250
     FM190400 23008KT P6SM BKN250
     FM190900 20005KT P6SM SCT250
     FM191400 VRB03KT P6SM SCT250
     FM192000 24009KT P6SM SCT250
     FM192200 25018G25KT P6SM SCT250=

USA.gov is the U.S. government's official web portal to all federal, state and local government web resources and services.